Time;durP1;ratioP1;P1;durP2;ratioP2;P2;SDS_P1;SDS_P2;PMS_P1;PMS_P2;Temp;Humidity;BMP_temperature;BMP_pressure;BME280_temperature;BME280_humidity;BME280_pressure;Samples;Min_cycle;Max_cycle;Signal;HPM_P1;HPM_P2
2022/04/17 00:00:29;;;;;;;46.88;28.85;;;5.90;99.90;;;;;;6214276;23;20090;-76
2022/04/17 00:03:06;;;;;;;47.65;29.83;;;5.90;99.90;;;;;;6215747;23;20016;-77
2022/04/17 00:05:35;;;;;;;50.80;30.97;;;5.80;99.90;;;;;;6214138;23;20452;-76
2022/04/17 00:08:09;;;;;;;50.50;30.45;;;5.80;99.90;;;;;;6238963;23;20237;-77
2022/04/17 00:10:39;;;;;;;45.58;29.30;;;5.70;99.90;;;;;;6213629;23;20060;-78
2022/04/17 00:13:14;;;;;;;46.60;30.30;;;5.70;99.90;;;;;;6164861;23;20099;-76
2022/04/17 00:15:40;;;;;;;47.78;33.90;;;5.60;99.90;;;;;;6213780;23;20029;-78
2022/04/17 00:18:07;;;;;;;48.00;31.73;;;5.50;99.90;;;;;;6213378;23;20031;-77
2022/04/17 00:20:32;;;;;;;48.97;31.77;;;5.50;99.90;;;;;;6213715;23;20033;-77
2022/04/17 00:22:59;;;;;;;51.03;32.45;;;5.50;99.90;;;;;;6213057;23;20519;-76
2022/04/17 00:25:46;;;;;;;48.35;33.08;;;5.40;99.90;;;;;;6212682;23;20021;-75
2022/04/17 00:28:11;;;;;;;53.88;32.63;;;5.30;99.90;;;;;;6215122;23;20027;-76
2022/04/17 00:30:41;;;;;;;53.22;33.83;;;5.30;99.90;;;;;;6189800;23;20029;-76
2022/04/17 00:33:16;;;;;;;55.47;34.70;;;5.20;99.90;;;;;;6211939;23;20039;-76
2022/04/17 00:35:44;;;;;;;51.25;33.63;;;5.20;99.90;;;;;;6161839;23;20050;-76
2022/04/17 00:38:12;;;;;;;49.63;31.35;;;5.10;99.90;;;;;;6187811;23;20100;-77
2022/04/17 00:40:43;;;;;;;49.30;33.25;;;5.10;99.90;;;;;;6212283;23;20415;-77
2022/04/17 00:43:36;;;;;;;66.00;36.63;;;5.00;99.90;;;;;;6161363;23;20492;-76
2022/04/17 00:46:04;;;;;;;58.55;37.25;;;5.00;99.90;;;;;;6212043;23;20029;-75
2022/04/17 00:48:33;;;;;;;56.92;36.80;;;4.90;99.90;;;;;;6212185;23;20016;-75
2022/04/17 00:51:03;;;;;;;54.70;36.75;;;4.90;99.90;;;;;;6212167;23;20745;-77
2022/04/17 00:53:29;;;;;;;53.45;34.90;;;4.90;99.90;;;;;;6161178;23;20025;-77
2022/04/17 00:56:07;;;;;;;55.83;37.78;;;4.90;99.90;;;;;;6211139;23;20039;-76
2022/04/17 00:58:35;;;;;;;61.60;39.33;;;4.80;99.90;;;;;;6186563;23;20039;-77
2022/04/17 01:01:07;;;;;;;62.60;39.17;;;4.80;99.90;;;;;;6186516;23;20025;-76
2022/04/17 01:03:55;;;;;;;64.88;41.05;;;4.80;99.90;;;;;;6212546;23;20062;-76
2022/04/17 01:06:21;;;;;;;57.85;39.13;;;4.70;99.90;;;;;;6212878;23;20032;-77
2022/04/17 01:08:47;;;;;;;59.03;39.13;;;4.70;99.90;;;;;;6188390;23;20021;-77
2022/04/17 01:11:31;;;;;;;63.50;42.20;;;4.70;99.90;;;;;;6238445;23;20028;-77
2022/04/17 01:14:03;;;;;;;60.78;40.95;;;4.70;99.90;;;;;;6163174;23;20325;-76
2022/04/17 01:16:38;;;;;;;59.13;39.60;;;4.70;99.90;;;;;;6190589;23;20017;-77
2022/04/17 01:19:12;;;;;;;53.58;34.92;;;4.70;99.90;;;;;;6214963;23;20100;-75
2022/04/17 01:21:46;;;;;;;56.90;34.53;;;4.80;99.90;;;;;;6214528;23;20017;-75
2022/04/17 01:27:00;;;;;;;50.58;32.45;;;5.00;99.90;;;;;;6212671;23;20060;-76
2022/04/17 01:29:37;;;;;;;47.85;32.50;;;5.10;99.90;;;;;;6212625;23;20036;-76
2022/04/17 01:32:11;;;;;;;49.05;32.03;;;5.20;99.90;;;;;;6213179;23;20095;-76
2022/04/17 01:34:39;;;;;;;47.33;29.73;;;5.30;99.90;;;;;;6184784;23;20021;-76
2022/04/17 01:40:53;;;;;;;45.38;29.58;;;5.40;99.90;;;;;;6214056;23;20031;-77
2022/04/17 01:43:24;;;;;;;47.03;29.17;;;5.40;99.90;;;;;;6187361;23;20103;-77
2022/04/17 01:45:52;;;;;;;45.38;28.67;;;5.50;99.90;;;;;;6214101;23;20360;-76
2022/04/17 01:48:27;;;;;;;42.38;28.17;;;5.60;99.90;;;;;;6212965;23;20095;-76
2022/04/17 01:50:53;;;;;;;42.75;28.60;;;5.60;99.90;;;;;;6212317;23;20401;-76
2022/04/17 01:53:20;;;;;;;44.05;29.23;;;5.60;99.90;;;;;;6213954;23;20102;-76
2022/04/17 01:56:07;;;;;;;39.63;27.50;;;5.60;99.90;;;;;;6214514;23;20087;-78
2022/04/17 01:58:34;;;;;;;47.58;26.33;;;5.60;99.90;;;;;;6212352;23;20543;-76
2022/04/17 02:01:08;;;;;;;40.85;27.88;;;5.60;99.90;;;;;;6214303;23;20028;-76
2022/04/17 02:03:37;;;;;;;47.42;28.20;;;5.60;99.90;;;;;;6213729;23;20444;-77
2022/04/17 02:06:07;;;;;;;41.67;26.70;;;5.60;99.90;;;;;;6213312;23;20131;-77
2022/04/17 02:08:36;;;;;;;36.78;25.75;;;5.60;99.90;;;;;;6212256;23;20028;-77
2022/04/17 02:11:06;;;;;;;37.08;25.35;;;5.60;99.90;;;;;;6214431;23;20035;-78
2022/04/17 02:13:36;;;;;;;42.88;26.92;;;5.60;99.90;;;;;;6212752;23;20036;-76
2022/04/17 02:16:04;;;;;;;42.05;26.75;;;5.60;99.90;;;;;;6187835;23;20075;-76
2022/04/17 02:18:31;;;;;;;45.15;25.85;;;5.60;99.90;;;;;;6213989;23;20020;-77
2022/04/17 02:21:01;;;;;;;39.67;25.25;;;5.60;99.90;;;;;;6193075;23;20017;-76
2022/04/17 02:23:28;;;;;;;35.40;26.20;;;5.60;99.90;;;;;;6224233;23;20139;-75
2022/04/17 02:25:55;;;;;;;36.92;25.40;;;5.50;99.90;;;;;;6196219;23;20080;-76
2022/04/17 02:28:21;;;;;;;38.03;26.40;;;5.50;99.90;;;;;;6215697;23;20031;-76
2022/04/17 02:30:48;;;;;;;41.67;27.30;;;5.60;99.90;;;;;;6203040;23;20095;-76
2022/04/17 02:33:14;;;;;;;36.33;24.42;;;5.50;99.90;;;;;;6186632;23;20051;-76
2022/04/17 02:35:40;;;;;;;37.38;22.50;;;5.50;99.90;;;;;;6186783;23;20020;-76
2022/04/17 02:38:09;;;;;;;38.33;24.30;;;5.50;99.90;;;;;;6213794;23;20021;-75
2022/04/17 02:40:35;;;;;;;40.08;24.92;;;5.50;99.90;;;;;;6210802;23;20465;-76
2022/04/17 02:43:01;;;;;;;32.28;21.33;;;5.50;99.90;;;;;;6214091;23;20025;-75
2022/04/17 02:45:29;;;;;;;39.92;23.80;;;5.50;99.90;;;;;;6236883;23;20028;-75
2022/04/17 02:48:17;;;;;;;37.97;21.58;;;5.40;99.90;;;;;;6213508;23;20024;-75
2022/04/17 02:50:42;;;;;;;34.65;22.77;;;5.40;99.90;;;;;;6213931;23;20028;-76
2022/04/17 02:53:12;;;;;;;38.55;24.17;;;5.50;99.90;;;;;;6214200;23;20098;-75
2022/04/17 02:55:42;;;;;;;33.53;22.95;;;5.40;99.90;;;;;;6212121;23;20024;-75
2022/04/17 02:58:10;;;;;;;36.97;22.33;;;5.40;99.90;;;;;;6212035;23;20028;-77
2022/04/17 03:06:21;;;;;;;37.20;25.02;;;5.40;99.90;;;;;;6192639;23;20063;-76
2022/04/17 03:08:55;;;;;;;32.75;21.20;;;5.30;99.90;;;;;;6213648;23;20013;-76
2022/04/17 03:11:22;;;;;;;34.58;23.13;;;5.30;99.90;;;;;;6211479;23;20090;-76
2022/04/17 03:13:48;;;;;;;36.10;21.58;;;5.30;99.90;;;;;;6186311;23;20448;-77
2022/04/17 03:16:15;;;;;;;34.30;21.73;;;5.40;99.90;;;;;;6209847;23;20028;-77
2022/04/17 03:18:41;;;;;;;32.30;21.42;;;5.30;99.90;;;;;;6213605;23;20033;-77
2022/04/17 03:21:09;;;;;;;35.42;20.73;;;5.30;99.90;;;;;;6211610;23;20093;-76
2022/04/17 03:23:47;;;;;;;36.50;22.77;;;5.30;99.90;;;;;;6236776;23;20102;-77
2022/04/17 03:26:13;;;;;;;40.30;23.80;;;5.30;99.90;;;;;;6210689;23;20028;-77
2022/04/17 03:28:42;;;;;;;35.85;23.90;;;5.30;99.90;;;;;;6211250;23;20024;-75
2022/04/17 03:31:08;;;;;;;34.33;24.50;;;5.30;99.90;;;;;;6211354;23;20114;-76
2022/04/17 03:33:38;;;;;;;41.15;24.95;;;5.30;99.90;;;;;;6211372;23;20494;-77
2022/04/17 03:36:05;;;;;;;40.55;27.23;;;5.30;99.90;;;;;;6213094;23;20025;-77
2022/04/17 03:38:34;;;;;;;43.30;26.38;;;5.30;99.90;;;;;;6211399;23;20025;-78
2022/04/17 03:41:00;;;;;;;40.80;26.75;;;5.30;99.90;;;;;;6213251;23;20427;-77
2022/04/17 03:43:26;;;;;;;38.30;25.73;;;5.30;99.90;;;;;;6161389;23;20078;-76
2022/04/17 03:46:00;;;;;;;34.85;22.88;;;5.20;99.90;;;;;;6211251;23;20640;-77
2022/04/17 03:48:28;;;;;;;37.38;24.73;;;5.20;99.90;;;;;;6211468;23;20464;-76
2022/04/17 03:50:54;;;;;;;36.03;23.65;;;5.20;99.90;;;;;;6211299;23;20031;-77
2022/04/17 03:53:20;;;;;;;39.25;23.85;;;5.20;99.90;;;;;;6213361;23;20021;-76
2022/04/17 03:55:49;;;;;;;34.80;21.27;;;5.20;99.90;;;;;;6212712;23;20496;-76
2022/04/17 03:58:21;;;;;;;35.85;21.38;;;5.20;99.90;;;;;;6213339;23;20024;-76
2022/04/17 04:00:48;;;;;;;32.03;20.98;;;5.20;99.90;;;;;;6211004;23;20108;-77
2022/04/17 04:03:17;;;;;;;32.13;20.58;;;5.20;99.90;;;;;;6211458;23;20475;-76
2022/04/17 04:05:43;;;;;;;31.08;20.25;;;5.20;99.90;;;;;;6212886;23;20020;-77
2022/04/17 04:08:29;;;;;;;32.67;20.23;;;5.20;99.90;;;;;;6210496;23;20075;-78
2022/04/17 04:10:54;;;;;;;32.47;20.70;;;5.20;99.90;;;;;;6186282;23;20029;-76
2022/04/17 04:13:25;;;;;;;32.08;21.33;;;5.20;99.90;;;;;;6161280;23;20538;-76
2022/04/17 04:16:16;;;;;;;42.28;24.42;;;5.20;99.90;;;;;;6212694;23;20036;-77
2022/04/17 04:18:42;;;;;;;37.20;22.10;;;5.20;99.90;;;;;;6186544;23;20023;-75
2022/04/17 04:21:08;;;;;;;31.95;22.23;;;5.10;99.90;;;;;;6211137;23;20115;-77
2022/04/17 04:23:48;;;;;;;31.42;20.15;;;5.10;99.90;;;;;;6211715;23;20123;-76
2022/04/17 04:26:16;;;;;;;28.98;20.35;;;5.00;99.90;;;;;;6186933;23;20099;-76
2022/04/17 04:28:51;;;;;;;33.10;21.73;;;5.10;99.90;;;;;;6212617;23;20398;-78
2022/04/17 04:31:37;;;;;;;32.28;20.95;;;5.00;99.90;;;;;;6214905;23;20034;-77
2022/04/17 04:34:06;;;;;;;30.50;19.95;;;5.00;99.90;;;;;;6190013;23;20044;-78
2022/04/17 04:36:35;;;;;;;29.77;19.92;;;5.00;99.90;;;;;;6213310;23;20098;-76
2022/04/17 04:39:08;;;;;;;29.00;19.05;;;4.90;99.90;;;;;;6161743;23;20032;-76
2022/04/17 04:41:37;;;;;;;34.10;19.73;;;4.90;99.90;;;;;;6187547;23;20028;-77
2022/04/17 04:44:05;;;;;;;29.55;18.83;;;4.90;99.90;;;;;;6188128;23;20029;-76
2022/04/17 04:46:37;;;;;;;29.35;18.05;;;4.90;99.90;;;;;;6214567;23;20016;-76
2022/04/17 04:52:21;;;;;;;29.20;18.63;;;4.90;99.90;;;;;;6188555;23;20035;-77
2022/04/17 04:54:47;;;;;;;29.95;18.92;;;4.90;99.90;;;;;;6210737;23;20017;-77
2022/04/17 04:57:18;;;;;;;28.58;19.50;;;4.90;99.90;;;;;;6187274;23;20619;-76
2022/04/17 04:59:49;;;;;;;30.45;18.20;;;4.90;99.90;;;;;;6212599;23;20099;-76
2022/04/17 05:02:16;;;;;;;25.20;17.83;;;5.00;99.90;;;;;;6212362;23;20030;-77
2022/04/17 05:04:44;;;;;;;30.08;19.23;;;5.00;99.90;;;;;;6214062;23;20424;-77
2022/04/17 05:07:16;;;;;;;29.20;18.45;;;5.00;99.90;;;;;;6186919;23;20081;-77
2022/04/17 05:09:52;;;;;;;30.95;18.13;;;5.00;99.90;;;;;;6210939;23;20021;-76
2022/04/17 05:12:17;;;;;;;27.95;17.33;;;5.00;99.90;;;;;;6187290;23;20052;-77
2022/04/17 05:14:45;;;;;;;28.52;17.77;;;5.00;99.90;;;;;;6213837;23;20460;-75
2022/04/17 05:17:12;;;;;;;26.17;17.50;;;5.10;99.90;;;;;;6212289;23;20027;-76
2022/04/17 05:19:42;;;;;;;23.95;16.25;;;5.10;99.90;;;;;;6214029;23;20021;-78
2022/04/17 05:22:16;;;;;;;27.40;16.70;;;5.20;99.90;;;;;;6187663;23;20470;-76
2022/04/17 05:24:43;;;;;;;26.83;17.17;;;5.30;99.90;;;;;;6214085;23;20028;-76
2022/04/17 05:27:13;;;;;;;26.40;17.15;;;5.40;99.90;;;;;;6212464;23;20028;-77
2022/04/17 05:29:52;;;;;;;24.90;14.90;;;5.40;99.90;;;;;;6214383;23;20527;-76
2022/04/17 05:32:18;;;;;;;26.67;16.70;;;5.50;99.90;;;;;;6212730;23;20071;-75
2022/04/17 05:35:05;;;;;;;25.38;15.68;;;5.60;99.90;;;;;;6191814;23;20019;-76
2022/04/17 05:37:46;;;;;;;23.05;14.80;;;5.70;99.90;;;;;;6212776;23;20542;-76
2022/04/17 05:40:21;;;;;;;22.00;15.88;;;5.80;99.90;;;;;;6214234;23;20159;-77
2022/04/17 05:43:07;;;;;;;24.63;15.75;;;5.80;99.90;;;;;;6214664;23;20025;-78
2022/04/17 05:45:33;;;;;;;23.23;13.93;;;5.90;99.90;;;;;;6212619;23;20027;-77
2022/04/17 05:48:00;;;;;;;24.00;16.52;;;6.00;99.90;;;;;;6187629;23;20452;-77
2022/04/17 05:50:30;;;;;;;24.02;15.45;;;6.00;99.90;;;;;;6187920;23;20025;-76
2022/04/17 05:53:19;;;;;;;24.13;15.35;;;6.20;99.90;;;;;;6190703;23;20035;-78
2022/04/17 05:55:50;;;;;;;26.60;15.65;;;6.20;99.90;;;;;;6212437;23;20028;-79
2022/04/17 05:58:34;;;;;;;28.05;17.30;;;6.30;99.90;;;;;;6191608;23;20082;-77
2022/04/17 06:01:02;;;;;;;27.55;16.70;;;6.40;99.90;;;;;;6212271;23;20028;-78
2022/04/17 06:03:32;;;;;;;27.27;15.70;;;6.50;99.90;;;;;;6237860;23;20017;-79
2022/04/17 06:05:57;;;;;;;26.27;17.02;;;6.50;99.90;;;;;;6214144;23;20356;-77
2022/04/17 06:08:25;;;;;;;28.70;16.98;;;6.60;99.90;;;;;;6187111;23;20016;-77
2022/04/17 06:10:53;;;;;;;26.65;16.00;;;6.70;99.90;;;;;;6187236;23;20024;-77
2022/04/17 06:13:21;;;;;;;23.08;15.70;;;6.80;99.90;;;;;;6162878;23;20028;-79
2022/04/17 06:15:50;;;;;;;24.40;16.42;;;6.90;99.90;;;;;;6212581;23;20035;-79
2022/04/17 06:18:18;;;;;;;26.02;16.15;;;7.00;99.90;;;;;;6211975;23;20391;-77
2022/04/17 06:20:50;;;;;;;27.17;16.67;;;7.10;99.90;;;;;;6212845;23;20095;-78
2022/04/17 06:23:20;;;;;;;27.73;16.20;;;7.20;99.90;;;;;;6212511;23;20024;-78
2022/04/17 06:25:48;;;;;;;24.95;17.13;;;7.30;99.90;;;;;;6216225;23;20032;-79
2022/04/17 06:28:17;;;;;;;22.90;14.75;;;7.40;99.90;;;;;;6191677;23;20027;-78
2022/04/17 06:30:49;;;;;;;26.38;14.70;;;7.50;99.90;;;;;;6225082;23;20024;-76
2022/04/17 06:33:23;;;;;;;25.13;15.75;;;7.60;99.90;;;;;;6226349;23;20094;-78
2022/04/17 06:35:49;;;;;;;21.95;15.18;;;7.60;99.90;;;;;;6218475;23;20074;-77
2022/04/17 06:38:46;;;;;;;26.05;16.63;;;7.80;99.90;;;;;;6188700;23;20029;-78
2022/04/17 06:41:31;;;;;;;25.50;16.20;;;7.80;99.90;;;;;;6129628;23;20043;-78
2022/04/17 06:44:03;;;;;;;23.35;15.40;;;8.00;99.90;;;;;;6150554;23;20444;-78
2022/04/17 06:46:30;;;;;;;21.77;14.27;;;8.10;99.90;;;;;;6125603;23;20029;-78
2022/04/17 06:48:56;;;;;;;25.60;15.20;;;8.20;99.90;;;;;;6100868;23;20025;-78
2022/04/17 06:51:34;;;;;;;22.75;15.10;;;8.40;99.90;;;;;;6106064;23;20405;-78
2022/04/17 06:54:00;;;;;;;19.75;13.07;;;8.60;99.90;;;;;;6125627;23;20025;-77
2022/04/17 06:56:30;;;;;;;18.52;12.95;;;8.70;99.90;;;;;;6125235;23;20488;-78
2022/04/17 06:59:09;;;;;;;19.98;13.02;;;8.80;99.90;;;;;;6101709;23;20029;-77
2022/04/17 07:01:43;;;;;;;17.60;11.80;;;9.00;99.90;;;;;;6125342;23;20100;-79
2022/04/17 07:04:12;;;;;;;17.60;11.27;;;9.10;99.90;;;;;;6078961;23;20028;-78
2022/04/17 07:06:41;;;;;;;18.20;12.20;;;9.20;99.90;;;;;;6149476;23;20026;-79
2022/04/17 07:09:08;;;;;;;18.70;11.50;;;9.40;99.90;;;;;;6126120;23;20025;-77
2022/04/17 07:11:34;;;;;;;15.23;10.80;;;9.50;99.30;;;;;;6150979;23;20018;-77
2022/04/17 07:14:00;;;;;;;19.92;11.55;;;9.60;99.10;;;;;;6126494;23;20601;-78
2022/04/17 07:16:28;;;;;;;18.50;12.07;;;9.70;98.90;;;;;;6125663;23;20025;-79
2022/04/17 07:19:03;;;;;;;16.55;10.32;;;9.80;98.80;;;;;;6126346;23;20026;-78
2022/04/17 07:21:30;;;;;;;16.27;10.70;;;9.90;98.70;;;;;;6125931;23;20052;-79
2022/04/17 07:24:01;;;;;;;15.40;9.95;;;10.10;98.70;;;;;;6125238;23;20025;-78
2022/04/17 07:26:33;;;;;;;15.55;9.25;;;10.30;97.70;;;;;;6102234;23;20057;-80
2022/04/17 07:29:02;;;;;;;15.50;10.10;;;10.40;97.60;;;;;;6149734;23;20115;-80
2022/04/17 07:31:35;;;;;;;13.52;8.55;;;10.50;97.20;;;;;;6156182;23;20029;-78
2022/04/17 07:34:18;;;;;;;15.90;9.80;;;10.60;96.70;;;;;;6180837;23;20027;-79
2022/04/17 07:36:52;;;;;;;14.20;9.15;;;10.60;95.80;;;;;;6180438;23;20075;-79
2022/04/17 07:39:24;;;;;;;15.73;9.07;;;10.70;96.40;;;;;;6182138;23;20021;-80
2022/04/17 07:41:56;;;;;;;13.82;8.98;;;10.90;96.20;;;;;;6158106;23;20024;-77
2022/04/17 07:44:29;;;;;;;14.38;9.52;;;11.00;96.10;;;;;;6183760;23;20404;-78
2022/04/17 07:47:16;;;;;;;15.20;9.93;;;11.00;96.50;;;;;;6150474;23;20491;-78
2022/04/17 07:49:51;;;;;;;16.02;9.30;;;11.40;97.00;;;;;;6125673;23;20057;-79
2022/04/17 07:52:18;;;;;;;14.45;9.13;;;11.50;96.60;;;;;;6101285;23;20030;-80
2022/04/17 07:54:44;;;;;;;13.32;8.18;;;11.60;96.50;;;;;;6150113;23;20036;-79
2022/04/17 07:57:14;;;;;;;14.77;8.32;;;11.70;95.90;;;;;;6146534;23;20068;-80
2022/04/17 07:59:45;;;;;;;11.10;7.57;;;11.80;95.80;;;;;;6154912;23;20057;-80
2022/04/17 08:02:28;;;;;;;10.67;7.30;;;12.00;95.30;;;;;;6180622;23;20045;-80
2022/04/17 08:04:54;;;;;;;14.77;8.48;;;12.20;94.80;;;;;;6156916;23;20021;-80
2022/04/17 08:07:22;;;;;;;11.13;6.85;;;12.20;94.20;;;;;;6182277;23;20121;-78
2022/04/17 08:09:57;;;;;;;12.20;7.32;;;12.40;93.50;;;;;;6182232;23;20029;-79
2022/04/17 08:12:26;;;;;;;10.70;7.28;;;12.50;92.80;;;;;;6180689;23;20083;-79
2022/04/17 08:14:56;;;;;;;11.13;7.35;;;12.60;92.60;;;;;;6180599;23;20338;-80
2022/04/17 08:17:22;;;;;;;10.65;7.28;;;12.80;92.40;;;;;;6185545;23;20103;-78
2022/04/17 08:19:53;;;;;;;13.27;7.68;;;12.90;91.40;;;;;;6215265;23;20099;-81
2022/04/17 08:22:26;;;;;;;10.73;7.17;;;13.00;91.30;;;;;;6238392;23;20021;-80
2022/04/17 08:24:53;;;;;;;13.48;7.57;;;13.10;90.20;;;;;;6213152;23;20283;-80
2022/04/17 08:27:18;;;;;;;11.02;7.35;;;13.20;90.20;;;;;;6215304;23;20027;-80
2022/04/17 08:29:51;;;;;;;12.15;6.80;;;13.20;88.90;;;;;;6214019;23;20031;-80
2022/04/17 08:32:20;;;;;;;10.88;5.93;;;13.30;84.40;;;;;;6189132;23;20423;-80
2022/04/17 08:34:48;;;;;;;9.00;6.22;;;13.40;81.20;;;;;;6188643;23;20021;-80
2022/04/17 08:37:21;;;;;;;10.18;6.47;;;13.40;79.00;;;;;;6215613;23;20025;-80
2022/04/17 08:39:47;;;;;;;9.57;6.05;;;13.60;82.60;;;;;;6215611;23;20020;-80
2022/04/17 08:42:21;;;;;;;11.27;6.30;;;13.70;82.60;;;;;;6213653;23;20028;-81
2022/04/17 08:45:01;;;;;;;10.75;6.35;;;13.70;80.70;;;;;;6188036;23;20024;-80
2022/04/17 08:47:30;;;;;;;10.98;6.57;;;13.80;82.50;;;;;;6214671;23;20052;-80
2022/04/17 08:50:00;;;;;;;10.38;6.43;;;13.90;79.70;;;;;;6212785;23;20024;-79
2022/04/17 08:52:30;;;;;;;11.13;6.75;;;14.10;79.60;;;;;;6212084;23;20031;-80
2022/04/17 08:55:00;;;;;;;8.90;6.50;;;14.10;77.00;;;;;;6212415;23;20052;-79
2022/04/17 08:57:28;;;;;;;11.30;6.70;;;14.20;77.00;;;;;;6189377;23;20020;-80
2022/04/17 09:00:04;;;;;;;13.65;6.88;;;14.30;73.70;;;;;;6213835;23;20024;-80
2022/04/17 09:02:39;;;;;;;12.40;7.07;;;14.50;73.30;;;;;;6214888;23;20024;-81
2022/04/17 09:05:14;;;;;;;10.05;6.47;;;14.70;71.90;;;;;;6211294;23;20472;-79
2022/04/17 09:07:51;;;;;;;10.82;6.72;;;14.80;68.90;;;;;;6214232;23;20064;-80
2022/04/17 09:10:31;;;;;;;13.65;6.15;;;14.90;66.80;;;;;;6188055;23;20025;-81
2022/04/17 09:13:02;;;;;;;9.50;5.38;;;15.00;65.90;;;;;;6212392;23;20031;-80
2022/04/17 09:15:36;;;;;;;8.98;5.55;;;15.00;63.70;;;;;;6213130;23;20501;-82
2022/04/17 09:18:07;;;;;;;11.27;6.15;;;15.20;62.00;;;;;;6213241;23;20387;-80
2022/04/17 09:20:33;;;;;;;9.15;6.03;;;15.20;63.20;;;;;;6187657;23;20028;-81
2022/04/17 09:23:04;;;;;;;10.50;6.47;;;15.40;61.80;;;;;;6212465;23;20025;-82
2022/04/17 09:25:36;;;;;;;9.18;6.47;;;15.30;60.00;;;;;;6189696;23;20020;-81
2022/04/17 09:28:30;;;;;;;9.75;5.70;;;15.50;61.10;;;;;;6188437;23;20432;-81
2022/04/17 09:30:59;;;;;;;10.43;6.90;;;15.60;57.00;;;;;;6214565;23;20025;-81
2022/04/17 09:33:36;;;;;;;9.63;6.15;;;15.80;59.10;;;;;;6212440;23;20028;-79
2022/04/17 09:36:12;;;;;;;11.27;6.45;;;15.80;56.60;;;;;;6213348;23;20082;-83
2022/04/17 09:38:38;;;;;;;9.18;5.72;;;15.90;59.80;;;;;;6213566;23;20024;-81
2022/04/17 09:41:18;;;;;;;13.05;6.28;;;15.80;57.10;;;;;;6238091;23;20023;-81
2022/04/17 09:43:48;;;;;;;9.82;5.65;;;15.80;55.80;;;;;;6214192;23;20356;-80
2022/04/17 09:46:19;;;;;;;8.82;5.85;;;16.00;57.50;;;;;;6237394;23;20036;-80
2022/04/17 09:48:51;;;;;;;9.00;6.03;;;16.30;56.60;;;;;;6210838;23;20020;-80
2022/04/17 09:51:34;;;;;;;8.27;5.30;;;16.40;53.50;;;;;;6211243;23;20027;-79
2022/04/17 09:54:08;;;;;;;9.55;5.97;;;16.40;54.00;;;;;;6214139;23;20052;-80
2022/04/17 09:56:45;;;;;;;10.60;6.22;;;16.70;55.80;;;;;;6212952;23;20063;-81
2022/04/17 09:59:36;;;;;;;11.35;5.82;;;16.70;54.80;;;;;;6092581;23;20454;-82
2022/04/17 10:02:06;;;;;;;8.60;6.22;;;16.80;53.10;;;;;;6045895;23;20033;-81
2022/04/17 10:04:37;;;;;;;9.52;6.20;;;16.90;51.50;;;;;;6068624;23;20375;-81
2022/04/17 10:07:05;;;;;;;10.30;6.53;;;17.10;51.30;;;;;;6092703;23;20022;-80
2022/04/17 10:09:32;;;;;;;9.38;6.10;;;17.40;51.20;;;;;;6092436;23;20058;-82
2022/04/17 10:12:00;;;;;;;9.05;5.97;;;17.60;49.90;;;;;;6068785;23;20457;-80
2022/04/17 10:14:30;;;;;;;16.48;5.97;;;17.70;50.90;;;;;;6068042;23;20065;-80
2022/04/17 10:16:59;;;;;;;10.70;6.57;;;17.60;49.70;;;;;;6092286;23;20026;-81
2022/04/17 10:19:32;;;;;;;11.00;6.28;;;17.80;48.10;;;;;;6068479;23;20076;-79
2022/04/17 10:22:03;;;;;;;8.43;5.18;;;17.90;48.50;;;;;;6090203;23;20034;-79
2022/04/17 10:24:54;;;;;;;17.85;6.20;;;18.10;46.30;;;;;;6042863;23;20026;-80
2022/04/17 10:27:51;;;;;;;7.78;5.10;;;18.30;45.50;;;;;;5950478;24;20104;-79
2022/04/17 10:30:54;;;;;;;9.18;5.25;;;18.20;43.10;;;;;;5927453;24;20488;-81
2022/04/17 10:34:06;;;;;;;6.65;4.28;;;18.20;43.70;;;;;;5927190;24;20040;-79
2022/04/17 10:37:03;;;;;;;11.50;4.93;;;18.40;41.30;;;;;;5934933;23;20027;-79
2022/04/17 10:39:35;;;;;;;10.30;5.57;;;18.30;40.40;;;;;;5959643;23;20106;-80
2022/04/17 10:42:10;;;;;;;10.55;5.88;;;18.30;40.50;;;;;;6005845;23;20031;-81
2022/04/17 10:44:51;;;;;;;9.50;5.85;;;18.70;42.20;;;;;;5959202;23;20379;-81
2022/04/17 10:47:21;;;;;;;8.50;5.25;;;18.80;42.00;;;;;;5982025;23;20024;-81
2022/04/17 10:49:56;;;;;;;9.95;5.55;;;18.90;41.50;;;;;;6005841;23;20027;-82
2022/04/17 10:52:28;;;;;;;7.40;5.07;;;19.00;39.50;;;;;;6005180;23;20472;-80
2022/04/17 10:54:55;;;;;;;7.60;4.72;;;19.20;39.10;;;;;;5982680;23;20384;-83
2022/04/17 10:57:26;;;;;;;9.93;5.47;;;19.70;39.90;;;;;;6005815;23;20064;-82
2022/04/17 11:00:32;;;;;;;8.82;6.00;;;19.60;38.60;;;;;;5937321;23;20232;-81
2022/04/17 11:03:11;;;;;;;9.32;4.38;;;19.80;39.80;;;;;;5982547;23;20028;-82
2022/04/17 11:08:26;;;;;;;8.45;4.95;;;20.00;37.70;;;;;;5986279;23;20427;-80
2022/04/17 11:11:04;;;;;;;7.60;5.13;;;20.40;37.90;;;;;;5982342;23;20111;-81
2022/04/17 11:13:34;;;;;;;8.45;5.20;;;20.60;36.20;;;;;;6027489;23;20077;-79
2022/04/17 11:16:08;;;;;;;7.72;5.30;;;20.60;37.50;;;;;;6090062;23;20077;-78
2022/04/17 11:18:40;;;;;;;7.38;4.57;;;20.70;37.30;;;;;;6208076;23;20059;-78
2022/04/17 11:21:12;;;;;;;7.50;4.68;;;21.10;36.90;;;;;;6211699;23;20027;-82
2022/04/17 11:23:48;;;;;;;8.18;4.15;;;20.90;35.30;;;;;;6211870;23;20487;-80
2022/04/17 11:26:18;;;;;;;6.60;3.28;;;21.20;35.00;;;;;;6211889;23;20024;-79
2022/04/17 11:28:58;;;;;;;5.10;3.22;;;21.30;34.30;;;;;;6187594;23;20027;-80
2022/04/17 11:31:31;;;;;;;6.38;4.45;;;21.50;32.00;;;;;;6213969;23;20043;-81
2022/04/17 11:34:03;;;;;;;7.45;4.07;;;21.40;32.60;;;;;;6212820;23;20016;-80
2022/04/17 11:36:53;;;;;;;9.57;4.45;;;21.60;32.10;;;;;;6187229;23;20053;-81
2022/04/17 11:39:31;;;;;;;7.95;4.18;;;21.70;32.20;;;;;;6178259;23;20016;-80
2022/04/17 11:42:19;;;;;;;7.93;4.22;;;21.90;32.50;;;;;;6176524;23;20124;-80
2022/04/17 11:44:50;;;;;;;7.35;4.90;;;21.80;32.30;;;;;;6173879;23;20129;-80
2022/04/17 11:47:24;;;;;;;9.35;5.30;;;21.80;32.80;;;;;;6181257;23;20036;-81
2022/04/17 11:49:54;;;;;;;8.15;4.88;;;21.70;33.60;;;;;;6158221;23;20408;-81
2022/04/17 11:52:21;;;;;;;8.13;4.78;;;22.30;34.20;;;;;;6154982;23;20025;-79
2022/04/17 11:54:50;;;;;;;7.72;4.53;;;22.40;33.30;;;;;;6179971;23;20115;-82
2022/04/17 11:57:32;;;;;;;7.30;4.35;;;22.40;33.00;;;;;;6132546;23;20028;-82
2022/04/17 12:00:03;;;;;;;7.40;4.15;;;22.40;31.90;;;;;;6154773;23;20082;-80
2022/04/17 12:02:37;;;;;;;7.25;4.03;;;23.00;32.70;;;;;;6131109;23;20059;-81
2022/04/17 12:05:12;;;;;;;6.82;4.00;;;23.00;32.20;;;;;;6154650;23;20025;-80
2022/04/17 12:07:39;;;;;;;6.80;4.55;;;23.70;32.70;;;;;;6130891;23;20523;-81
2022/04/17 12:10:07;;;;;;;6.82;4.05;;;23.90;31.30;;;;;;6130484;23;20108;-81
2022/04/17 12:12:39;;;;;;;7.22;4.47;;;23.70;31.10;;;;;;6179674;23;20398;-80
2022/04/17 12:15:06;;;;;;;6.70;3.97;;;23.60;30.70;;;;;;6180302;23;20041;-81
2022/04/17 12:17:33;;;;;;;6.45;4.10;;;23.90;30.70;;;;;;6155034;23;20096;-82
2022/04/17 12:20:19;;;;;;;6.18;4.40;;;24.30;30.80;;;;;;6130689;23;20028;-81
2022/04/17 12:22:56;;;;;;;7.50;4.00;;;23.90;29.80;;;;;;6156924;23;20021;-82
2022/04/17 12:25:27;;;;;;;5.47;4.10;;;24.40;31.10;;;;;;6155980;23;20453;-79
2022/04/17 12:27:57;;;;;;;8.82;4.90;;;24.90;30.80;;;;;;6179256;23;20063;-80
2022/04/17 12:30:28;;;;;;;9.50;4.60;;;24.70;30.50;;;;;;6184692;23;20078;-81
2022/04/17 12:32:59;;;;;;;6.88;4.47;;;24.90;29.80;;;;;;6175494;23;20016;-81
2022/04/17 12:35:32;;;;;;;7.97;4.40;;;25.10;29.80;;;;;;6162672;23;20047;-80
2022/04/17 12:38:05;;;;;;;7.68;4.05;;;25.10;29.20;;;;;;6212956;23;20021;-81
2022/04/17 12:40:39;;;;;;;8.23;5.20;;;25.30;29.60;;;;;;6212898;23;20028;-81
2022/04/17 12:43:19;;;;;;;7.30;4.82;;;25.30;29.90;;;;;;6186328;23;20021;-81
2022/04/17 12:46:04;;;;;;;7.28;4.65;;;25.10;30.40;;;;;;6210990;23;20032;-81
2022/04/17 12:49:27;;;;;;;7.07;4.28;;;25.30;29.30;;;;;;6232359;23;20020;-82
2022/04/17 12:59:19;;;;;;;8.32;5.43;;;26.90;29.70;;;;;;6200656;23;20043;-82
2022/04/17 13:01:48;;;;;;;6.57;4.28;;;27.80;28.80;;;;;;6237956;23;20024;-81
2022/04/17 13:04:27;;;;;;;9.00;4.20;;;27.80;28.40;;;;;;6212365;23;20035;-81
2022/04/17 13:07:13;;;;;;;6.43;4.53;;;27.70;28.10;;;;;;6186075;23;20024;-81
2022/04/17 13:10:03;;;;;;;7.95;4.75;;;27.90;28.10;;;;;;6184476;23;20092;-81
2022/04/17 13:12:45;;;;;;;8.82;4.70;;;28.60;28.40;;;;;;6210249;23;20021;-82
2022/04/17 13:15:17;;;;;;;6.85;4.25;;;28.80;28.00;;;;;;6185324;23;20028;-80
2022/04/17 13:17:55;;;;;;;6.40;4.05;;;28.80;27.30;;;;;;6211330;23;20070;-81
2022/04/17 13:24:03;;;;;;;6.93;4.82;;;29.20;26.00;;;;;;6211242;23;20036;-80
2022/04/17 13:26:31;;;;;;;6.25;3.78;;;29.40;26.70;;;;;;6186079;23;20032;-81
2022/04/17 13:29:00;;;;;;;6.10;4.10;;;30.40;27.40;;;;;;6211237;23;20092;-81
2022/04/17 13:31:26;;;;;;;7.78;4.05;;;30.50;26.50;;;;;;6161014;23;20546;-82
2022/04/17 13:33:56;;;;;;;7.00;4.47;;;30.00;26.00;;;;;;6185842;23;20609;-80
2022/04/17 13:36:22;;;;;;;14.18;4.95;;;30.30;26.20;;;;;;6207950;23;20059;-81